createdAt,value
2019-05-12T00:01:09.167Z,7.22
2019-05-12T00:03:39.499Z,7.18
2019-05-12T00:06:09.806Z,7.15
2019-05-12T00:08:39.703Z,7.10
2019-05-12T00:11:09.684Z,7.09
2019-05-12T00:13:39.751Z,7.05
2019-05-12T00:16:09.720Z,7.07
2019-05-12T00:18:39.501Z,7.04
2019-05-12T00:21:09.639Z,7.01
2019-05-12T00:23:58.262Z,7.00
2019-05-12T00:26:28.459Z,6.98
2019-05-12T00:28:58.905Z,6.94
2019-05-12T00:31:29.252Z,6.90
2019-05-12T00:34:00.193Z,6.89
2019-05-12T00:36:31.436Z,6.86
2019-05-12T00:39:02.377Z,6.84
2019-05-12T00:41:32.465Z,6.82
2019-05-12T00:44:02.287Z,6.81
2019-05-12T00:46:33.333Z,6.78
2019-05-12T00:49:03.226Z,6.76
2019-05-12T00:51:33.369Z,6.75
2019-05-12T00:54:03.548Z,6.71
2019-05-12T00:56:33.434Z,6.71
2019-05-12T00:59:03.689Z,6.70
2019-05-12T01:01:33.643Z,6.69
2019-05-12T01:04:03.597Z,6.65
2019-05-12T01:06:33.701Z,6.63
2019-05-12T01:09:08.543Z,6.63
2019-05-12T01:11:40.633Z,6.61
2019-05-12T01:14:09.587Z,6.58
2019-05-12T01:16:39.485Z,6.55
2019-05-12T01:19:09.323Z,6.52
2019-05-12T01:21:42.597Z,6.48
2019-05-12T01:24:12.563Z,6.48
2019-05-12T01:26:42.932Z,6.46
2019-05-12T01:29:12.952Z,6.42
2019-05-12T01:31:50.441Z,6.37
2019-05-12T01:34:20.559Z,6.36
2019-05-12T01:36:50.425Z,6.35
2019-05-12T01:39:20.262Z,6.33
2019-05-12T01:41:50.408Z,6.33
2019-05-12T01:44:20.583Z,6.31
2019-05-12T01:46:50.565Z,6.30
2019-05-12T01:49:20.647Z,6.28
2019-05-12T01:51:50.536Z,6.27
2019-05-12T01:54:20.396Z,6.22
2019-05-12T01:56:50.632Z,6.21
2019-05-12T01:59:21.070Z,6.17
2019-05-12T02:01:51.033Z,6.16
2019-05-12T02:04:21.041Z,6.14
2019-05-12T02:06:51.561Z,6.12
2019-05-12T02:09:23.043Z,6.08
2019-05-12T02:11:53.043Z,6.08
2019-05-12T02:14:23.049Z,6.06
2019-05-12T02:16:53.443Z,6.01
2019-05-12T02:19:23.250Z,5.95
2019-05-12T02:21:53.184Z,5.92
2019-05-12T02:24:27.118Z,5.87
2019-05-12T02:26:54.629Z,5.88
2019-05-12T02:29:24.550Z,5.84
2019-05-12T02:31:54.430Z,5.84
2019-05-12T02:34:25.365Z,5.82
2019-05-12T02:36:55.763Z,5.80
2019-05-12T02:39:26.181Z,5.76
2019-05-12T02:41:56.271Z,5.73
2019-05-12T02:44:26.078Z,5.74
2019-05-12T02:46:56.483Z,5.69
2019-05-12T02:49:26.528Z,5.67
2019-05-12T02:51:56.843Z,5.64
2019-05-12T02:54:47.016Z,5.63
2019-05-12T02:56:59.244Z,5.63
2019-05-12T02:59:34.668Z,5.56
2019-05-12T03:02:05.576Z,5.59
2019-05-12T03:04:36.657Z,5.63
2019-05-12T03:07:06.856Z,5.59
2019-05-12T03:09:37.034Z,5.57
2019-05-12T03:12:07.436Z,5.52
2019-05-12T03:14:40.901Z,5.47
2019-05-12T03:17:09.165Z,5.41
2019-05-12T03:19:39.772Z,5.35
2019-05-12T03:22:09.598Z,5.36
2019-05-12T03:24:39.426Z,5.34
2019-05-12T03:27:09.227Z,5.35
2019-05-12T03:29:39.225Z,5.37
2019-05-12T03:32:09.842Z,5.39
2019-05-12T03:34:39.650Z,5.37
2019-05-12T03:37:10.524Z,5.35
2019-05-12T03:39:40.716Z,5.31
2019-05-12T03:42:10.617Z,5.26
2019-05-12T03:44:40.670Z,5.21
2019-05-12T03:47:14.208Z,5.17
2019-05-12T03:49:45.451Z,5.01
2019-05-12T03:52:15.451Z,5.08
2019-05-12T03:54:45.435Z,5.05
2019-05-12T03:57:15.737Z,5.03
2019-05-12T03:59:46.332Z,5.10
2019-05-12T04:02:16.236Z,5.10
2019-05-12T04:04:46.649Z,5.16
2019-05-12T04:07:17.242Z,5.15
2019-05-12T04:09:47.239Z,5.15
2019-05-12T04:12:17.850Z,5.12
2019-05-12T04:14:47.755Z,4.97
2019-05-12T04:17:17.759Z,4.97
2019-05-12T04:19:48.550Z,5.06
2019-05-12T04:22:18.555Z,5.12
2019-05-12T04:24:48.538Z,5.16
2019-05-12T04:27:18.443Z,5.20
2019-05-12T04:29:48.618Z,5.21
2019-05-12T04:32:19.204Z,5.21
2019-05-12T04:34:49.195Z,5.31
2019-05-12T04:37:19.544Z,5.34
2019-05-12T04:39:49.463Z,5.44
2019-05-12T04:42:19.550Z,5.44
2019-05-12T04:44:49.361Z,5.48
2019-05-12T04:47:19.358Z,5.52
2019-05-12T04:49:49.811Z,5.54
2019-05-12T04:52:19.705Z,5.54
2019-05-12T04:54:49.633Z,5.62
2019-05-12T04:57:21.133Z,5.68
2019-05-12T04:59:54.103Z,5.70
2019-05-12T05:02:24.974Z,5.72
2019-05-12T05:04:54.776Z,5.83
2019-05-12T05:07:24.737Z,6.02
2019-05-12T05:09:54.992Z,7.56
2019-05-12T05:12:25.427Z,9.73
2019-05-12T05:14:55.382Z,11.42
2019-05-12T05:17:25.567Z,12.73
2019-05-12T05:19:55.557Z,13.72
2019-05-12T05:22:25.511Z,14.33
2019-05-12T05:24:55.701Z,13.98
2019-05-12T05:27:26.063Z,12.20
2019-05-12T05:29:56.060Z,10.73
2019-05-12T05:32:26.862Z,9.91
2019-05-12T05:34:57.924Z,10.15
2019-05-12T05:37:30.725Z,12.09
2019-05-12T05:40:00.476Z,13.98
2019-05-12T05:42:32.911Z,15.14
2019-05-12T05:45:04.642Z,16.16
2019-05-12T05:47:33.769Z,16.48
2019-05-12T05:50:04.881Z,16.54
2019-05-12T05:52:38.747Z,16.79
2019-05-12T05:55:14.650Z,16.86
2019-05-12T05:57:38.559Z,16.83
2019-05-12T06:00:17.320Z,16.48
2019-05-12T06:02:43.913Z,15.94
2019-05-12T06:05:14.540Z,16.76
2019-05-12T06:07:44.476Z,16.73
2019-05-12T06:10:15.131Z,17.00
2019-05-12T06:12:50.688Z,17.06
2019-05-12T06:15:17.298Z,16.77
2019-05-12T06:17:47.235Z,16.48
2019-05-12T06:20:17.273Z,16.71
2019-05-12T06:22:48.589Z,16.61
2019-05-12T06:25:18.974Z,16.40
2019-05-12T06:27:51.020Z,15.48
2019-05-12T06:30:20.647Z,14.43
2019-05-12T06:32:52.014Z,13.60
2019-05-12T06:35:24.011Z,13.14
2019-05-12T06:37:59.969Z,12.69
2019-05-12T06:40:25.562Z,12.03
2019-05-12T06:42:57.124Z,11.55
2019-05-12T06:45:33.180Z,11.23
2019-05-12T06:48:00.632Z,11.14
2019-05-12T06:50:36.854Z,10.99
2019-05-12T06:53:04.728Z,10.99
2019-05-12T06:55:38.827Z,10.80
2019-05-12T06:58:05.628Z,10.63
2019-05-12T07:00:35.855Z,10.65
2019-05-12T07:03:05.953Z,10.69
2019-05-12T07:05:38.918Z,10.69
2019-05-12T07:08:08.175Z,10.80
2019-05-12T07:10:43.569Z,10.76
2019-05-12T07:13:16.604Z,10.77
2019-05-12T07:15:43.751Z,10.81
2019-05-12T07:18:17.655Z,10.82
2019-05-12T07:20:46.693Z,10.82
2019-05-12T07:23:19.554Z,10.89
2019-05-12T07:25:48.033Z,11.09
2019-05-12T07:28:17.911Z,11.16
2019-05-12T07:30:48.561Z,11.35
2019-05-12T07:33:18.803Z,11.68
2019-05-12T07:35:53.244Z,11.65
2019-05-12T07:38:25.725Z,11.58
2019-05-12T07:40:54.813Z,11.62
2019-05-12T07:43:27.440Z,11.77
2019-05-12T07:46:02.288Z,11.70
2019-05-12T07:48:30.537Z,11.62
2019-05-12T07:51:00.911Z,11.68
2019-05-12T07:53:33.736Z,11.71
2019-05-12T07:56:04.125Z,11.86
2019-05-12T07:58:34.291Z,12.18
2019-05-12T08:01:07.772Z,12.20
2019-05-12T08:03:36.359Z,12.10
2019-05-12T08:06:06.375Z,12.00
2019-05-12T08:08:44.197Z,11.87
2019-05-12T08:11:08.778Z,11.90
2019-05-12T08:13:40.898Z,11.93
2019-05-12T08:16:10.809Z,11.88
2019-05-12T08:18:41.237Z,11.73
2019-05-12T08:21:13.805Z,11.90
2019-05-12T08:23:44.489Z,11.89
2019-05-12T08:26:18.592Z,11.70
2019-05-12T08:28:46.363Z,12.01
2019-05-12T08:31:17.508Z,12.20
2019-05-12T08:33:47.655Z,12.08
2019-05-12T08:36:17.926Z,12.07
2019-05-12T08:38:47.801Z,12.06
2019-05-12T08:41:18.083Z,12.19
2019-05-12T08:43:54.455Z,12.18
2019-05-12T08:46:19.785Z,12.20
2019-05-12T08:48:51.689Z,12.15
2019-05-12T08:51:21.306Z,12.28
2019-05-12T08:53:56.287Z,12.61
2019-05-12T08:56:25.982Z,12.48
2019-05-12T08:58:54.771Z,12.37
2019-05-12T09:01:28.712Z,12.14
2019-05-12T09:04:00.294Z,12.04
2019-05-12T09:06:28.899Z,12.02
2019-05-12T09:08:58.894Z,12.25
2019-05-12T09:11:28.841Z,12.54
2019-05-12T09:14:00.970Z,12.58
2019-05-12T09:16:30.425Z,12.71
2019-05-12T09:19:01.435Z,12.67
2019-05-12T09:21:34.300Z,12.74
2019-05-12T09:24:04.259Z,12.78
2019-05-12T09:26:35.544Z,12.97
2019-05-12T09:29:07.415Z,13.22
2019-05-12T09:31:37.332Z,13.36
2019-05-12T09:34:11.947Z,13.42
2019-05-12T09:36:44.093Z,13.35
2019-05-12T09:39:14.309Z,13.27
2019-05-12T09:41:50.663Z,13.16
2019-05-12T09:44:20.339Z,13.13
2019-05-12T09:46:47.536Z,13.26
2019-05-12T09:49:25.505Z,13.53
2019-05-12T09:51:49.055Z,13.89
2019-05-12T09:54:26.164Z,14.32
2019-05-12T09:56:55.347Z,14.35
2019-05-12T09:59:25.765Z,13.94
2019-05-12T10:01:55.389Z,13.67
2019-05-12T10:04:25.571Z,13.48
2019-05-12T10:06:55.520Z,13.63
2019-05-12T10:09:25.632Z,13.75
2019-05-12T10:12:00.463Z,13.92
2019-05-12T10:14:27.344Z,13.79
2019-05-12T10:16:57.517Z,13.42
2019-05-12T10:19:27.488Z,13.36
2019-05-12T10:21:59.465Z,13.73
2019-05-12T10:24:34.461Z,14.25
2019-05-12T10:27:00.752Z,14.57
2019-05-12T10:29:32.379Z,14.72
2019-05-12T10:32:03.981Z,14.52
2019-05-12T10:34:36.022Z,14.13
2019-05-12T10:37:05.887Z,14.21
2019-05-12T10:39:35.777Z,14.06
2019-05-12T10:42:06.677Z,14.19
2019-05-12T10:44:40.729Z,14.48
2019-05-12T10:47:08.594Z,14.54
2019-05-12T10:49:39.008Z,14.28
2019-05-12T10:52:08.819Z,14.46
2019-05-12T10:54:40.557Z,14.63
2019-05-12T10:57:10.556Z,14.55
2019-05-12T10:59:45.292Z,14.59
2019-05-12T11:02:13.942Z,14.83
2019-05-12T11:04:44.209Z,15.03
2019-05-12T11:07:14.226Z,14.61
2019-05-12T11:09:44.143Z,14.19
2019-05-12T11:12:19.256Z,14.09
2019-05-12T11:14:45.771Z,14.08
2019-05-12T11:17:16.971Z,14.30
2019-05-12T11:19:51.304Z,14.83
2019-05-12T11:22:19.619Z,15.20
2019-05-12T11:24:52.841Z,15.15
2019-05-12T11:27:23.961Z,14.78
2019-05-12T11:29:53.758Z,14.39
2019-05-12T11:32:23.645Z,14.20
2019-05-12T11:34:53.762Z,14.42
2019-05-12T11:37:23.642Z,14.79
2019-05-12T11:40:09.257Z,15.06
2019-05-12T11:42:33.651Z,15.29
2019-05-12T11:45:03.388Z,15.47
2019-05-12T11:47:37.124Z,15.40
2019-05-12T11:50:09.729Z,15.15
2019-05-12T11:52:37.434Z,14.78
2019-05-12T11:55:09.435Z,14.58
2019-05-12T11:57:39.349Z,14.88
2019-05-12T12:00:13.854Z,14.82
2019-05-12T12:02:43.810Z,14.87
2019-05-12T12:05:14.031Z,15.02
2019-05-12T12:07:50.667Z,15.22
2019-05-12T12:10:16.692Z,15.51
2019-05-12T12:12:49.293Z,15.33
2019-05-12T12:15:20.524Z,15.13
2019-05-12T12:17:50.079Z,15.00
2019-05-12T12:20:22.475Z,15.20
2019-05-12T12:22:54.122Z,15.62
2019-05-12T12:25:30.253Z,16.05
2019-05-12T12:28:00.450Z,16.11
2019-05-12T12:30:30.455Z,15.93
2019-05-12T12:33:03.638Z,15.71
2019-05-12T12:35:34.394Z,15.57
2019-05-12T12:38:04.711Z,15.82
2019-05-12T12:40:34.674Z,15.86
2019-05-12T12:43:04.648Z,15.89
2019-05-12T12:45:40.817Z,16.03
2019-05-12T12:48:11.097Z,15.75
2019-05-12T12:50:41.053Z,15.39
2019-05-12T12:53:11.278Z,15.19
2019-05-12T12:55:43.569Z,15.14
2019-05-12T12:58:14.078Z,15.47
2019-05-12T13:00:53.671Z,15.81
2019-05-12T13:03:19.593Z,15.83
2019-05-12T13:05:47.563Z,15.69
2019-05-12T13:08:17.694Z,15.63
2019-05-12T13:10:51.395Z,15.55
2019-05-12T13:13:20.120Z,15.83
2019-05-12T13:15:50.119Z,16.10
2019-05-12T13:18:25.770Z,16.39
2019-05-12T13:20:53.959Z,16.59
2019-05-12T13:23:36.678Z,16.93
2019-05-12T13:25:55.541Z,16.96
2019-05-12T13:28:25.999Z,17.05
2019-05-12T13:31:08.260Z,17.03
2019-05-12T13:33:29.383Z,16.85
2019-05-12T13:35:59.268Z,16.74
2019-05-12T13:38:30.455Z,16.76
2019-05-12T13:41:00.731Z,16.47
2019-05-12T13:43:30.620Z,16.20
2019-05-12T13:46:00.626Z,16.31
2019-05-12T13:48:30.534Z,16.09
2019-05-12T13:51:10.311Z,15.85
2019-05-12T13:53:33.480Z,15.87
2019-05-12T13:56:04.829Z,16.21
2019-05-12T13:58:42.584Z,16.33
2019-05-12T14:01:20.014Z,16.29
2019-05-12T14:03:39.862Z,16.37
2019-05-12T14:06:09.798Z,16.29
2019-05-12T14:08:39.706Z,16.22
2019-05-12T14:11:09.607Z,16.09
2019-05-12T14:13:39.932Z,16.10
2019-05-12T14:16:10.733Z,16.09
2019-05-12T14:18:40.830Z,15.78
2019-05-12T14:21:10.672Z,15.77
2019-05-12T14:23:40.507Z,16.01
2019-05-12T14:26:10.507Z,16.28
2019-05-12T14:28:45.554Z,16.48
2019-05-12T14:31:24.460Z,16.45
2019-05-12T14:33:44.299Z,16.51
2019-05-12T14:36:21.581Z,16.40
2019-05-12T14:38:46.290Z,16.30
2019-05-12T14:41:16.178Z,16.19
2019-05-12T14:43:47.926Z,16.25
2019-05-12T14:46:18.137Z,16.36
2019-05-12T14:48:50.470Z,16.50
2019-05-12T14:51:20.033Z,16.38
2019-05-12T14:53:50.028Z,16.40
2019-05-12T14:56:20.204Z,16.49
2019-05-12T14:58:55.564Z,16.53
2019-05-12T15:01:23.862Z,16.67
2019-05-12T15:03:53.611Z,16.69
2019-05-12T15:06:28.245Z,16.54
2019-05-12T15:08:55.883Z,16.48
2019-05-12T15:11:25.852Z,16.69
2019-05-12T15:13:55.874Z,16.78
2019-05-12T15:16:25.699Z,16.50
2019-05-12T15:18:55.527Z,16.35
2019-05-12T15:21:27.306Z,16.28
2019-05-12T15:23:57.534Z,16.30
2019-05-12T15:26:27.531Z,16.38
2019-05-12T15:28:57.416Z,16.20
2019-05-12T15:31:27.559Z,16.17
2019-05-12T15:33:59.550Z,16.13
2019-05-12T15:36:29.324Z,16.11
2019-05-12T15:38:59.292Z,15.96
2019-05-12T15:41:29.193Z,15.95
2019-05-12T15:43:59.416Z,15.89
2019-05-12T15:46:34.686Z,15.84
2019-05-12T15:49:00.776Z,15.75
2019-05-12T15:51:30.817Z,15.71
2019-05-12T15:54:06.554Z,15.62
2019-05-12T15:56:33.625Z,15.60
2019-05-12T15:59:03.875Z,15.59
2019-05-12T16:01:33.821Z,15.68
2019-05-12T16:04:03.846Z,15.65
2019-05-12T16:06:33.621Z,15.52
2019-05-12T16:09:05.168Z,15.34
2019-05-12T16:11:35.187Z,15.20
2019-05-12T16:14:06.670Z,15.15
2019-05-12T16:16:42.424Z,15.13
2019-05-12T16:19:09.335Z,15.05
2019-05-12T16:21:39.826Z,15.01
2019-05-12T16:24:12.442Z,14.99
2019-05-12T16:26:45.260Z,15.04
2019-05-12T16:29:12.895Z,14.95
2019-05-12T16:31:45.648Z,14.79
2019-05-12T16:34:14.849Z,14.82
2019-05-12T16:36:47.589Z,14.74
2019-05-12T16:39:17.004Z,14.67
2019-05-12T16:41:47.266Z,14.68
2019-05-12T16:44:23.152Z,14.57
2019-05-12T16:46:49.046Z,14.43
2019-05-12T16:49:25.018Z,14.39
2019-05-12T16:51:51.203Z,14.30
2019-05-12T16:54:24.033Z,14.30
2019-05-12T16:56:54.159Z,14.25
2019-05-12T16:59:24.617Z,14.21
2019-05-12T17:01:59.323Z,14.13
2019-05-12T17:04:26.270Z,14.12
2019-05-12T17:06:56.081Z,14.01
2019-05-12T17:09:26.023Z,14.02
2019-05-12T17:11:55.981Z,13.96
2019-05-12T17:14:28.642Z,13.91
2019-05-12T17:16:57.438Z,13.84
2019-05-12T17:19:27.555Z,13.77
2019-05-12T17:21:59.493Z,13.74
2019-05-12T17:24:29.623Z,13.72
2019-05-12T17:26:59.508Z,13.62
2019-05-12T17:29:29.729Z,13.55
2019-05-12T17:32:00.079Z,13.47
2019-05-12T17:34:29.902Z,13.45
2019-05-12T17:37:00.581Z,13.37
2019-05-12T17:39:35.787Z,13.32
2019-05-12T17:42:03.112Z,13.24
2019-05-12T17:44:36.617Z,13.20
2019-05-12T17:47:04.593Z,13.14
2019-05-12T17:49:34.875Z,13.10
2019-05-12T17:52:13.449Z,13.05
2019-05-12T17:54:36.753Z,12.97
2019-05-12T17:57:09.596Z,12.91
2019-05-12T17:59:41.881Z,12.87
2019-05-12T18:02:13.187Z,12.83
2019-05-12T18:04:43.729Z,12.75
2019-05-12T18:07:19.131Z,12.68
2019-05-12T18:09:50.635Z,12.64
2019-05-12T18:12:18.427Z,12.57
2019-05-12T18:14:52.230Z,12.53
2019-05-12T18:17:20.259Z,12.46
2019-05-12T18:19:55.337Z,12.42
2019-05-12T18:22:23.560Z,12.32
2019-05-12T18:24:54.281Z,12.25
2019-05-12T18:27:25.709Z,12.18
2019-05-12T18:29:55.875Z,12.12
2019-05-12T18:32:26.076Z,12.08
2019-05-12T18:34:56.150Z,12.05
2019-05-12T18:37:26.053Z,11.99
2019-05-12T18:39:56.223Z,11.92
2019-05-12T18:42:26.123Z,11.84
2019-05-12T18:45:01.238Z,11.78
2019-05-12T18:47:33.424Z,11.72
2019-05-12T18:50:04.596Z,11.68
2019-05-12T18:52:41.384Z,11.62
2019-05-12T18:55:07.322Z,11.57
2019-05-12T18:57:39.361Z,11.54
2019-05-12T19:00:18.208Z,11.47
2019-05-12T19:02:51.081Z,11.43
2019-05-12T19:05:23.993Z,11.37
2019-05-12T19:07:54.261Z,11.29
2019-05-12T19:10:25.109Z,11.24
2019-05-12T19:13:01.241Z,11.20
2019-05-12T19:15:27.804Z,11.13
2019-05-12T19:17:58.036Z,11.10
2019-05-12T19:20:31.315Z,11.06
2019-05-12T19:23:00.212Z,11.00
2019-05-12T19:25:35.791Z,10.93
2019-05-12T19:28:07.050Z,10.87
2019-05-12T19:30:34.518Z,10.81
2019-05-12T19:33:10.549Z,10.77
2019-05-12T19:35:38.081Z,10.72
2019-05-12T19:38:07.895Z,10.66
2019-05-12T19:40:37.857Z,10.63
2019-05-12T19:43:09.838Z,10.58
2019-05-12T19:45:39.812Z,10.53
2019-05-12T19:48:23.293Z,10.48
2019-05-12T19:50:44.517Z,10.41
2019-05-12T19:53:13.392Z,10.32
2019-05-12T19:55:44.752Z,10.29
2019-05-12T19:58:14.769Z,10.25
2019-05-12T20:00:44.879Z,10.21
2019-05-12T20:03:15.071Z,10.16
2019-05-12T20:05:45.056Z,10.09
2019-05-12T20:08:15.376Z,10.05
2019-05-12T20:10:49.378Z,10.02
2019-05-12T20:13:17.806Z,10.00
2019-05-12T20:15:47.836Z,9.98
2019-05-12T20:18:17.859Z,9.87
2019-05-12T20:20:48.033Z,9.84
2019-05-12T20:23:17.948Z,9.80
2019-05-12T20:25:48.281Z,9.76
2019-05-12T20:28:18.217Z,9.70
2019-05-12T20:30:52.289Z,9.66
2019-05-12T20:33:20.703Z,9.60
2019-05-12T20:35:50.584Z,9.53
2019-05-12T20:38:25.543Z,9.48
2019-05-12T20:40:54.076Z,9.42
2019-05-12T20:43:32.065Z,9.40
2019-05-12T20:45:55.667Z,9.35
2019-05-12T20:48:30.972Z,9.33
2019-05-12T20:50:58.024Z,9.29
2019-05-12T20:53:31.776Z,9.24
2019-05-12T20:55:59.708Z,9.20
2019-05-12T20:58:35.394Z,9.18
2019-05-12T21:01:04.504Z,9.18
2019-05-12T21:03:33.628Z,9.15
2019-05-12T21:06:04.413Z,9.14
2019-05-12T21:08:34.439Z,9.11
2019-05-12T21:11:04.726Z,9.06
2019-05-12T21:13:35.395Z,9.01
2019-05-12T21:16:16.570Z,8.95
2019-05-12T21:18:46.909Z,8.92
2019-05-12T21:21:08.993Z,8.89
2019-05-12T21:23:38.867Z,8.84
2019-05-12T21:26:08.680Z,8.78
2019-05-12T21:28:46.046Z,8.76
2019-05-12T21:31:10.264Z,8.72
2019-05-12T21:33:41.754Z,8.69
2019-05-12T21:36:17.362Z,8.65
2019-05-12T21:38:43.407Z,8.62
2019-05-12T21:41:15.628Z,8.62
2019-05-12T21:43:45.744Z,8.60
2019-05-12T21:46:15.844Z,8.55
2019-05-12T21:48:45.732Z,8.29
2019-05-12T21:51:19.929Z,8.38
2019-05-12T21:53:50.688Z,8.32
2019-05-12T21:56:20.803Z,8.31
2019-05-12T21:58:53.738Z,8.03
2019-05-12T22:01:23.945Z,8.22
2019-05-12T22:04:01.803Z,8.20
2019-05-12T22:06:26.099Z,8.16
2019-05-12T22:09:01.586Z,8.12
2019-05-12T22:11:34.656Z,8.13
2019-05-12T22:14:06.285Z,8.10
2019-05-12T22:16:43.631Z,8.05
2019-05-12T22:19:09.385Z,8.03
2019-05-12T22:21:46.948Z,8.00
2019-05-12T22:24:10.943Z,7.98
2019-05-12T22:26:45.955Z,7.97
2019-05-12T22:29:13.633Z,7.95
2019-05-12T22:31:44.980Z,7.88
2019-05-12T22:34:15.982Z,7.86
2019-05-12T22:36:55.305Z,7.83
2019-05-12T22:39:18.687Z,7.81
2019-05-12T22:41:49.248Z,7.76
2019-05-12T22:44:22.104Z,7.71
2019-05-12T22:46:53.907Z,7.69
2019-05-12T22:49:23.076Z,7.66
2019-05-12T22:51:54.598Z,7.63
2019-05-12T22:54:24.767Z,7.58
2019-05-12T22:56:55.244Z,7.58
2019-05-12T22:59:26.246Z,7.58
2019-05-12T23:01:56.064Z,7.53
2019-05-12T23:04:35.615Z,7.49
2019-05-12T23:06:58.453Z,7.47
2019-05-12T23:09:30.158Z,7.47
2019-05-12T23:12:00.735Z,7.42
2019-05-12T23:14:30.701Z,7.39
2019-05-12T23:17:05.842Z,7.35
2019-05-12T23:19:33.966Z,7.34
2019-05-12T23:22:04.288Z,7.31
2019-05-12T23:24:39.169Z,7.27
2019-05-12T23:27:08.931Z,7.26
2019-05-12T23:29:37.675Z,7.23
2019-05-12T23:32:11.916Z,7.19
2019-05-12T23:34:44.209Z,7.15
2019-05-12T23:37:11.282Z,7.08
2019-05-12T23:39:41.516Z,7.08
2019-05-12T23:42:13.633Z,7.06
2019-05-12T23:44:44.150Z,7.04
2019-05-12T23:47:15.035Z,6.98
2019-05-12T23:49:44.880Z,6.89
2019-05-12T23:52:14.725Z,6.83
2019-05-12T23:54:45.014Z,6.80
2019-05-12T23:57:15.732Z,6.81
2019-05-12T23:59:46.725Z,6.81
